createdAt,value
2018-04-21T00:01:39.102Z,58.33
2018-04-21T00:04:07.067Z,59.05
2018-04-21T00:06:35.007Z,59.44
2018-04-21T00:09:02.987Z,59.57
2018-04-21T00:11:32.293Z,58.41
2018-04-21T00:14:01.917Z,60.32
2018-04-21T00:16:29.961Z,59.99
2018-04-21T00:18:57.867Z,59.34
2018-04-21T00:21:25.795Z,60.18
2018-04-21T00:23:53.717Z,60.12
2018-04-21T00:26:22.327Z,60.92
2018-04-21T00:28:50.260Z,60.94
2018-04-21T00:31:18.202Z,61.73
2018-04-21T00:33:46.113Z,62.72
2018-04-21T00:36:14.062Z,61.35
2018-04-21T00:38:41.975Z,63.30
2018-04-21T00:41:09.888Z,61.89
2018-04-21T00:43:37.824Z,62.82
2018-04-21T00:46:05.781Z,63.09
2018-04-21T00:48:33.682Z,63.69
2018-04-21T00:51:01.615Z,63.04
2018-04-21T00:53:41.283Z,64.07
2018-04-21T00:56:09.183Z,64.11
2018-04-21T00:58:37.133Z,64.05
2018-04-21T01:01:05.048Z,64.02
2018-04-21T01:03:32.984Z,64.86
2018-04-21T01:06:00.885Z,65.14
2018-04-21T01:08:28.814Z,65.52
2018-04-21T01:10:56.761Z,66.41
2018-04-21T01:13:24.679Z,66.28
2018-04-21T01:15:52.635Z,66.47
2018-04-21T01:18:20.556Z,66.00
2018-04-21T01:20:48.550Z,66.83
2018-04-21T01:23:16.472Z,67.52
2018-04-21T01:25:44.389Z,67.78
2018-04-21T01:28:12.309Z,68.28
2018-04-21T01:30:40.248Z,70.52
2018-04-21T01:33:08.199Z,71.55
2018-04-21T01:35:36.101Z,68.38
2018-04-21T01:38:04.044Z,68.49
2018-04-21T01:40:31.970Z,69.27
2018-04-21T01:42:59.908Z,69.89
2018-04-21T01:45:27.859Z,69.82
2018-04-21T01:47:55.839Z,70.81
2018-04-21T01:50:23.747Z,70.98
2018-04-21T01:52:51.892Z,71.21
2018-04-21T01:55:19.832Z,71.42
2018-04-21T01:57:47.764Z,71.93
2018-04-21T02:00:15.693Z,72.61
2018-04-21T02:02:43.619Z,73.22
2018-04-21T02:05:11.532Z,73.49
2018-04-21T02:07:39.460Z,73.32
2018-04-21T02:10:07.383Z,74.23
2018-04-21T02:12:35.298Z,74.38
2018-04-21T02:15:03.221Z,74.67
2018-04-21T02:17:31.166Z,74.80
2018-04-21T02:19:59.153Z,74.67
2018-04-21T02:22:27.098Z,75.25
2018-04-21T02:24:55.279Z,75.28
2018-04-21T02:27:23.417Z,75.74
2018-04-21T02:29:51.803Z,75.79
2018-04-21T02:32:19.726Z,76.69
2018-04-21T02:34:47.674Z,76.55
2018-04-21T02:37:15.693Z,76.58
2018-04-21T02:39:43.620Z,76.73
2018-04-21T02:42:11.549Z,77.72
2018-04-21T02:44:39.492Z,77.68
2018-04-21T02:47:07.551Z,77.52
2018-04-21T02:49:35.584Z,77.71
2018-04-21T02:52:03.598Z,77.47
2018-04-21T02:54:31.493Z,77.91
2018-04-21T02:56:59.436Z,78.08
2018-04-21T02:59:27.368Z,78.25
2018-04-21T03:01:55.300Z,77.98
2018-04-21T03:04:23.241Z,78.42
2018-04-21T03:06:51.183Z,78.64
2018-04-21T03:09:19.133Z,78.97
2018-04-21T03:11:47.091Z,79.48
2018-04-21T03:14:15.011Z,79.11
2018-04-21T03:16:42.928Z,79.37
2018-04-21T03:19:10.851Z,79.14
2018-04-21T03:21:38.801Z,79.77
2018-04-21T03:24:06.725Z,79.09
2018-04-21T03:26:34.738Z,78.75
2018-04-21T03:29:02.700Z,79.26
2018-04-21T03:31:30.689Z,80.35
2018-04-21T03:33:58.600Z,79.97
2018-04-21T03:36:26.535Z,80.24
2018-04-21T03:38:55.338Z,80.46
2018-04-21T03:41:23.339Z,80.14
2018-04-21T03:43:51.265Z,79.98
2018-04-21T03:46:19.211Z,79.88
2018-04-21T03:48:47.135Z,79.93
2018-04-21T03:51:15.071Z,80.01
2018-04-21T03:53:42.984Z,80.17
2018-04-21T03:56:10.929Z,81.22
2018-04-21T03:58:38.832Z,81.14
2018-04-21T04:01:06.763Z,81.05
2018-04-21T04:03:34.686Z,81.73
2018-04-21T04:06:02.645Z,81.17
2018-04-21T04:08:30.606Z,81.18
2018-04-21T04:10:58.496Z,81.17
2018-04-21T04:13:26.477Z,81.01
2018-04-21T04:16:06.041Z,81.59
2018-04-21T04:18:47.569Z,81.41
2018-04-21T04:21:40.749Z,81.32
2018-04-21T04:24:08.681Z,81.39
2018-04-21T04:26:36.633Z,80.98
2018-04-21T04:29:04.551Z,81.36
2018-04-21T04:31:32.515Z,81.48
2018-04-21T04:34:00.447Z,81.45
2018-04-21T04:36:28.379Z,81.01
2018-04-21T04:38:56.335Z,81.50
2018-04-21T04:41:24.267Z,81.95
2018-04-21T04:43:52.215Z,81.75
2018-04-21T04:46:20.144Z,82.26
2018-04-21T04:48:48.055Z,82.29
2018-04-21T04:51:15.981Z,81.84
2018-04-21T04:53:43.931Z,82.54
2018-04-21T04:56:11.864Z,82.29
2018-04-21T04:58:39.811Z,82.28
2018-04-21T05:01:07.788Z,82.11
2018-04-21T05:03:35.770Z,82.75
2018-04-21T05:06:03.700Z,82.55
2018-04-21T05:08:31.616Z,82.29
2018-04-21T05:10:59.556Z,81.97
2018-04-21T05:13:27.506Z,81.41
2018-04-21T05:15:55.484Z,81.01
2018-04-21T05:18:23.392Z,82.08
2018-04-21T05:20:51.351Z,82.44
2018-04-21T05:23:19.261Z,82.26
2018-04-21T05:25:47.242Z,81.41
2018-04-21T05:28:15.164Z,81.18
2018-04-21T05:30:43.118Z,81.88
2018-04-21T05:33:11.068Z,81.50
2018-04-21T05:35:38.995Z,81.81
2018-04-21T05:38:06.915Z,81.52
2018-04-21T05:40:34.850Z,81.72
2018-04-21T05:43:02.790Z,80.82
2018-04-21T05:45:30.703Z,81.12
2018-04-21T05:47:58.656Z,79.69
2018-04-21T05:50:26.612Z,81.08
2018-04-21T05:52:54.529Z,81.01
2018-04-21T05:55:22.467Z,80.72
2018-04-21T05:57:50.397Z,80.53
2018-04-21T06:00:18.340Z,80.38
2018-04-21T06:02:46.235Z,79.82
2018-04-21T06:05:14.157Z,79.62
2018-04-21T06:07:42.096Z,80.25
2018-04-21T06:10:10.022Z,80.02
2018-04-21T06:12:37.960Z,79.59
2018-04-21T06:15:05.881Z,79.29
2018-04-21T06:17:33.824Z,78.78
2018-04-21T06:20:01.772Z,78.14
2018-04-21T06:22:29.793Z,76.98
2018-04-21T06:24:57.728Z,76.51
2018-04-21T06:27:25.654Z,74.61
2018-04-21T06:29:53.663Z,75.41
2018-04-21T06:32:21.569Z,74.21
2018-04-21T06:34:49.508Z,73.41
2018-04-21T06:37:17.434Z,73.30
2018-04-21T06:39:45.371Z,73.12
2018-04-21T06:42:13.308Z,72.21
2018-04-21T06:44:41.218Z,70.91
2018-04-21T06:47:09.132Z,70.16
2018-04-21T06:49:37.055Z,69.93
2018-04-21T06:52:04.974Z,70.50
2018-04-21T06:54:32.878Z,70.22
2018-04-21T06:57:00.810Z,68.53
2018-04-21T06:59:28.726Z,68.42
2018-04-21T07:01:56.643Z,67.91
2018-04-21T07:04:24.560Z,68.08
2018-04-21T07:06:52.550Z,66.90
2018-04-21T07:09:20.453Z,66.32
2018-04-21T07:11:48.372Z,63.94
2018-04-21T07:14:16.293Z,64.53
2018-04-21T07:16:44.329Z,63.76
2018-04-21T07:19:12.527Z,64.40
2018-04-21T07:21:40.405Z,64.26
2018-04-21T07:24:08.993Z,64.50
2018-04-21T07:26:36.948Z,63.75
2018-04-21T07:29:04.940Z,62.92
2018-04-21T07:31:32.879Z,62.91
2018-04-21T07:34:00.812Z,61.09
2018-04-21T07:36:28.942Z,64.94
2018-04-21T07:38:56.922Z,62.98
2018-04-21T07:41:24.929Z,59.26
2018-04-21T07:43:52.799Z,59.92
2018-04-21T07:46:20.728Z,58.87
2018-04-21T07:48:48.646Z,59.64
2018-04-21T07:51:16.612Z,59.51
2018-04-21T07:53:44.604Z,58.14
2018-04-21T07:56:12.580Z,59.15
2018-04-21T07:58:40.499Z,59.41
2018-04-21T08:01:08.552Z,58.24
2018-04-21T08:03:36.455Z,57.96
2018-04-21T08:06:04.460Z,58.74
2018-04-21T08:08:32.380Z,57.56
2018-04-21T08:11:00.295Z,56.93
2018-04-21T08:13:28.252Z,54.42
2018-04-21T08:15:56.173Z,53.88
2018-04-21T08:18:24.093Z,53.44
2018-04-21T08:20:52.025Z,52.03
2018-04-21T08:23:20.011Z,53.52
2018-04-21T08:25:47.932Z,52.04
2018-04-21T08:28:15.847Z,51.62
2018-04-21T08:30:43.764Z,50.94
2018-04-21T08:33:11.708Z,50.66
2018-04-21T08:35:39.692Z,50.50
2018-04-21T08:38:07.749Z,50.72
2018-04-21T08:40:35.664Z,49.61
2018-04-21T08:43:03.608Z,49.85
2018-04-21T08:45:31.576Z,50.70
2018-04-21T08:47:59.511Z,48.81
2018-04-21T08:50:27.442Z,48.41
2018-04-21T08:52:55.366Z,49.20
2018-04-21T08:55:23.351Z,47.33
2018-04-21T08:57:51.272Z,47.25
2018-04-21T09:00:19.419Z,47.74
2018-04-21T09:02:47.394Z,46.86
2018-04-21T09:05:15.336Z,46.80
2018-04-21T09:07:43.264Z,47.15
2018-04-21T09:10:11.220Z,46.51
2018-04-21T09:12:39.237Z,46.00
2018-04-21T09:15:07.224Z,46.92
2018-04-21T09:17:35.208Z,45.88
2018-04-21T09:20:03.214Z,47.28
2018-04-21T09:22:31.159Z,45.12
2018-04-21T09:24:59.093Z,45.63
2018-04-21T09:27:27.130Z,44.22
2018-04-21T09:29:55.028Z,43.74
2018-04-21T09:32:22.944Z,44.69
2018-04-21T09:34:50.857Z,44.38
2018-04-21T09:37:18.785Z,44.67
2018-04-21T09:39:46.695Z,45.12
2018-04-21T09:42:14.620Z,44.77
2018-04-21T09:44:42.560Z,43.99
2018-04-21T09:47:10.474Z,43.60
2018-04-21T09:49:38.426Z,43.35
2018-04-21T09:52:06.354Z,43.22
2018-04-21T09:54:34.282Z,43.29
2018-04-21T09:57:02.707Z,42.37
2018-04-21T09:59:30.712Z,42.10
2018-04-21T10:01:58.620Z,41.69
2018-04-21T10:04:26.551Z,42.09
2018-04-21T10:06:54.504Z,41.04
2018-04-21T10:09:22.412Z,40.57
2018-04-21T10:11:50.334Z,40.15
2018-04-21T10:14:18.279Z,40.69
2018-04-21T10:16:46.215Z,40.06
2018-04-21T10:19:14.170Z,38.40
2018-04-21T10:21:42.158Z,37.82
2018-04-21T10:24:10.060Z,37.64
2018-04-21T10:26:38.006Z,36.97
2018-04-21T10:29:05.932Z,37.24
2018-04-21T10:31:33.901Z,37.74
2018-04-21T10:34:01.826Z,38.65
2018-04-21T10:36:29.741Z,38.24
2018-04-21T10:38:57.664Z,38.98
2018-04-21T10:41:25.603Z,38.36
2018-04-21T10:43:53.532Z,38.30
2018-04-21T10:46:21.441Z,39.03
2018-04-21T10:48:49.364Z,38.01
2018-04-21T10:51:17.338Z,38.57
2018-04-21T10:53:45.223Z,38.14
2018-04-21T10:56:13.141Z,37.71
2018-04-21T10:58:41.074Z,38.70
2018-04-21T11:01:08.992Z,38.11
2018-04-21T11:03:36.971Z,36.95
2018-04-21T11:06:04.870Z,36.34
2018-04-21T11:08:32.831Z,37.17
2018-04-21T11:11:00.792Z,34.78
2018-04-21T11:13:28.728Z,36.17
2018-04-21T11:15:56.835Z,37.91
2018-04-21T11:18:24.751Z,37.11
2018-04-21T11:20:52.651Z,38.13
2018-04-21T11:23:20.592Z,37.83
2018-04-21T11:25:48.586Z,38.19
2018-04-21T11:28:16.496Z,37.67
2018-04-21T11:30:44.436Z,38.26
2018-04-21T11:33:12.331Z,37.88
2018-04-21T11:35:40.271Z,39.59
2018-04-21T11:38:08.184Z,39.70
2018-04-21T11:40:36.117Z,39.20
2018-04-21T11:43:04.046Z,39.72
2018-04-21T11:45:32.012Z,39.31
2018-04-21T11:47:59.932Z,39.13
2018-04-21T11:50:27.850Z,39.15
2018-04-21T11:52:55.792Z,37.35
2018-04-21T11:55:23.728Z,41.49
2018-04-21T11:57:51.629Z,38.82
2018-04-21T12:00:19.579Z,36.84
2018-04-21T12:02:47.531Z,37.75
2018-04-21T12:05:15.493Z,37.36
2018-04-21T12:07:43.381Z,38.14
2018-04-21T12:10:11.267Z,38.68
2018-04-21T12:12:39.249Z,37.27
2018-04-21T12:15:07.195Z,36.21
2018-04-21T12:17:35.275Z,37.73
2018-04-21T12:20:03.233Z,35.72
2018-04-21T12:22:31.176Z,36.19
2018-04-21T12:24:59.083Z,36.83
2018-04-21T12:27:27.007Z,36.68
2018-04-21T12:29:54.934Z,36.26
2018-04-21T12:32:22.838Z,35.53
2018-04-21T12:34:50.752Z,35.86
2018-04-21T12:37:18.667Z,35.09
2018-04-21T12:39:46.579Z,35.26
2018-04-21T12:42:14.493Z,36.52
2018-04-21T12:44:42.432Z,35.89
2018-04-21T12:47:10.339Z,34.79
2018-04-21T12:49:38.260Z,35.75
2018-04-21T12:52:06.185Z,34.89
2018-04-21T12:54:34.079Z,35.37
2018-04-21T12:57:01.994Z,34.47
2018-04-21T12:59:29.923Z,36.88
2018-04-21T13:01:57.830Z,35.99
2018-04-21T13:04:25.764Z,36.32
2018-04-21T13:06:53.657Z,36.25
2018-04-21T13:09:21.592Z,38.08
2018-04-21T13:11:49.493Z,37.78
2018-04-21T13:14:17.674Z,38.00
2018-04-21T13:16:45.607Z,37.94
2018-04-21T13:19:13.517Z,35.77
2018-04-21T13:21:41.424Z,38.04
2018-04-21T13:24:09.339Z,37.95
2018-04-21T13:26:37.252Z,38.20
2018-04-21T13:29:05.143Z,38.36
2018-04-21T13:31:33.104Z,37.91
2018-04-21T13:34:01.014Z,39.20
2018-04-21T13:36:28.921Z,37.35
2018-04-21T13:38:56.833Z,36.91
2018-04-21T13:41:24.845Z,36.18
2018-04-21T13:43:52.771Z,36.87
2018-04-21T13:46:20.685Z,37.10
2018-04-21T13:48:48.592Z,37.23
2018-04-21T13:51:16.508Z,37.40
2018-04-21T13:53:44.423Z,38.24
2018-04-21T13:56:12.329Z,37.86
2018-04-21T13:58:40.248Z,38.02
2018-04-21T14:01:08.151Z,39.39
2018-04-21T14:03:36.065Z,38.58
2018-04-21T14:06:03.977Z,39.73
2018-04-21T14:08:31.932Z,38.55
2018-04-21T14:11:00.661Z,38.55
2018-04-21T14:13:28.567Z,38.39
2018-04-21T14:15:56.501Z,38.48
2018-04-21T14:18:24.397Z,38.15
2018-04-21T14:20:52.311Z,38.11
2018-04-21T14:23:20.272Z,38.59
2018-04-21T14:25:48.142Z,38.76
2018-04-21T14:28:16.039Z,38.98
2018-04-21T14:30:43.939Z,39.71
2018-04-21T14:33:11.860Z,39.63
2018-04-21T14:35:39.779Z,39.97
2018-04-21T14:38:07.716Z,40.55
2018-04-21T14:40:35.640Z,40.76
2018-04-21T14:43:03.563Z,41.02
2018-04-21T14:45:31.467Z,41.94
2018-04-21T14:47:59.620Z,41.68
2018-04-21T14:50:27.496Z,42.79
2018-04-21T14:52:55.460Z,42.43
2018-04-21T14:55:23.379Z,42.87
2018-04-21T14:57:51.271Z,42.67
2018-04-21T15:00:19.200Z,43.10
2018-04-21T15:02:47.194Z,43.00
2018-04-21T15:05:15.084Z,43.08
2018-04-21T15:07:43.839Z,43.17
2018-04-21T15:10:11.757Z,44.51
2018-04-21T15:12:39.685Z,43.77
2018-04-21T15:15:07.660Z,43.18
2018-04-21T15:17:35.576Z,42.82
2018-04-21T15:20:03.527Z,43.38
2018-04-21T15:22:31.463Z,42.87
2018-04-21T15:24:59.414Z,42.84
2018-04-21T15:27:27.354Z,43.63
2018-04-21T15:29:55.302Z,44.57
2018-04-21T15:32:23.252Z,44.64
2018-04-21T15:34:51.175Z,44.31
2018-04-21T15:37:19.103Z,43.48
2018-04-21T15:39:47.004Z,42.92
2018-04-21T15:42:14.939Z,42.82
2018-04-21T15:44:42.873Z,43.16
2018-04-21T15:47:10.961Z,42.63
2018-04-21T15:49:38.901Z,42.36
2018-04-21T15:52:07.648Z,42.67
2018-04-21T15:54:35.576Z,42.67
2018-04-21T15:57:03.484Z,41.40
2018-04-21T15:59:31.413Z,41.72
2018-04-21T16:01:59.342Z,41.26
2018-04-21T16:04:27.308Z,41.58
2018-04-21T16:06:55.201Z,42.00
2018-04-21T16:09:23.118Z,40.55
2018-04-21T16:11:51.017Z,41.65
2018-04-21T16:14:18.952Z,42.29
2018-04-21T16:16:46.864Z,42.32
2018-04-21T16:19:14.779Z,42.66
2018-04-21T16:21:42.686Z,42.93
2018-04-21T16:24:10.621Z,42.43
2018-04-21T16:26:38.524Z,42.47
2018-04-21T16:29:06.572Z,41.67
2018-04-21T16:31:34.512Z,43.87
2018-04-21T16:34:02.436Z,43.44
2018-04-21T16:36:30.342Z,43.53
2018-04-21T16:38:58.255Z,44.53
2018-04-21T16:41:26.175Z,43.96
2018-04-21T16:43:54.084Z,44.19
2018-04-21T16:46:21.999Z,44.55
2018-04-21T16:48:49.952Z,44.86
2018-04-21T16:51:17.850Z,45.38
2018-04-21T16:53:45.763Z,45.03
2018-04-21T16:56:13.692Z,44.08
2018-04-21T16:58:41.630Z,45.04
2018-04-21T17:01:09.565Z,45.25
2018-04-21T17:03:37.529Z,44.60
2018-04-21T17:06:05.492Z,45.17
2018-04-21T17:08:33.514Z,45.40
2018-04-21T17:11:01.492Z,46.22
2018-04-21T17:13:29.408Z,45.95
2018-04-21T17:15:57.368Z,45.57
2018-04-21T17:18:25.315Z,43.36
2018-04-21T17:20:53.244Z,43.72
2018-04-21T17:23:21.150Z,44.25
2018-04-21T17:25:49.141Z,43.93
2018-04-21T17:28:17.077Z,44.32
2018-04-21T17:30:44.983Z,44.73
2018-04-21T17:33:13.128Z,44.09
2018-04-21T17:35:41.261Z,44.02
2018-04-21T17:38:09.197Z,45.32
2018-04-21T17:40:37.150Z,45.16
2018-04-21T17:43:05.056Z,43.80
2018-04-21T17:45:33.065Z,44.67
2018-04-21T17:48:01.003Z,44.52
2018-04-21T17:50:29.124Z,45.22
2018-04-21T17:52:58.075Z,45.73
2018-04-21T17:55:26.017Z,45.53
2018-04-21T17:57:53.928Z,45.94
2018-04-21T18:00:21.850Z,45.51
2018-04-21T18:02:49.781Z,45.63
2018-04-21T18:05:18.323Z,45.01
2018-04-21T18:07:46.223Z,45.70
2018-04-21T18:10:14.348Z,45.45
2018-04-21T18:12:42.395Z,45.06
2018-04-21T18:15:10.385Z,44.74
2018-04-21T18:17:38.635Z,44.91
2018-04-21T18:20:06.561Z,45.25
2018-04-21T18:22:34.527Z,44.63
2018-04-21T18:25:02.468Z,45.06
2018-04-21T18:27:30.409Z,44.93
2018-04-21T18:29:58.310Z,45.23
2018-04-21T18:32:26.289Z,46.08
2018-04-21T18:34:54.251Z,46.09
2018-04-21T18:37:22.163Z,45.36
2018-04-21T18:39:50.084Z,45.78
2018-04-21T18:42:18.076Z,46.08
2018-04-21T18:44:45.988Z,48.01
2018-04-21T18:47:13.967Z,46.91
2018-04-21T18:49:41.903Z,46.31
2018-04-21T18:52:09.804Z,45.80
2018-04-21T18:54:37.726Z,46.51
2018-04-21T18:57:05.715Z,47.47
2018-04-21T18:59:33.593Z,47.48
2018-04-21T19:02:01.508Z,47.69
2018-04-21T19:04:29.430Z,47.96
2018-04-21T19:06:57.319Z,48.58
2018-04-21T19:09:25.291Z,48.41
2018-04-21T19:11:53.203Z,48.32
2018-04-21T19:14:21.134Z,48.44
2018-04-21T19:16:49.047Z,50.34
2018-04-21T19:19:16.979Z,49.78
2018-04-21T19:21:45.809Z,48.92
2018-04-21T19:24:14.074Z,49.27
2018-04-21T19:26:42.057Z,49.81
2018-04-21T19:29:09.922Z,50.50
2018-04-21T19:31:37.869Z,52.38
2018-04-21T19:34:05.838Z,53.07
2018-04-21T19:36:33.743Z,53.00
2018-04-21T19:39:01.655Z,53.08
2018-04-21T19:41:30.310Z,53.43
2018-04-21T19:43:58.230Z,53.68
2018-04-21T19:46:26.176Z,54.00
2018-04-21T19:48:54.092Z,54.28
2018-04-21T19:51:22.040Z,54.84
2018-04-21T19:53:50.180Z,54.62
2018-04-21T19:56:18.063Z,55.01
2018-04-21T19:58:45.993Z,55.45
2018-04-21T20:01:13.875Z,55.63
2018-04-21T20:03:41.811Z,55.83
2018-04-21T20:06:09.772Z,55.94
2018-04-21T20:08:37.690Z,56.95
2018-04-21T20:11:05.593Z,57.55
2018-04-21T20:13:33.503Z,58.85
2018-04-21T20:16:01.428Z,59.36
2018-04-21T20:18:29.345Z,59.54
2018-04-21T20:20:57.263Z,61.17
2018-04-21T20:23:25.202Z,61.38
2018-04-21T20:25:53.131Z,61.16
2018-04-21T20:28:21.048Z,60.51
2018-04-21T20:30:48.993Z,60.54
2018-04-21T20:33:16.911Z,61.04
2018-04-21T20:35:44.888Z,61.87
2018-04-21T20:38:12.789Z,62.34
2018-04-21T20:40:40.763Z,63.12
2018-04-21T20:43:08.900Z,62.87
2018-04-21T20:45:37.520Z,62.05
2018-04-21T20:48:05.449Z,62.06
2018-04-21T20:50:33.478Z,61.55
2018-04-21T20:53:01.380Z,61.26
2018-04-21T20:55:29.284Z,61.25
2018-04-21T20:57:57.228Z,61.35
2018-04-21T21:00:25.143Z,61.17
2018-04-21T21:02:53.115Z,61.79
2018-04-21T21:05:21.084Z,61.60
2018-04-21T21:07:49.062Z,62.13
2018-04-21T21:10:17.009Z,62.44
2018-04-21T21:12:44.930Z,63.07
2018-04-21T21:15:12.901Z,63.12
2018-04-21T21:17:40.806Z,63.02
2018-04-21T21:20:08.754Z,62.55
2018-04-21T21:22:36.668Z,62.28
2018-04-21T21:25:04.608Z,62.28
2018-04-21T21:27:32.512Z,62.36
2018-04-21T21:30:00.419Z,63.02
2018-04-21T21:32:28.320Z,63.58
2018-04-21T21:34:56.245Z,63.16
2018-04-21T21:37:24.147Z,62.96
2018-04-21T21:39:52.059Z,62.95
2018-04-21T21:42:19.970Z,60.90
2018-04-21T21:44:47.916Z,61.91
2018-04-21T21:47:15.831Z,62.47
2018-04-21T21:49:43.791Z,61.09
2018-04-21T21:52:11.689Z,62.33
2018-04-21T21:54:39.655Z,62.70
2018-04-21T21:57:07.911Z,62.07
2018-04-21T21:59:35.824Z,61.44
2018-04-21T22:02:03.746Z,62.41
2018-04-21T22:04:31.645Z,62.63
2018-04-21T22:07:05.239Z,62.53
2018-04-21T22:09:33.165Z,62.44
2018-04-21T22:12:01.077Z,62.28
2018-04-21T22:14:28.998Z,61.86
2018-04-21T22:16:56.931Z,62.37
2018-04-21T22:19:24.837Z,62.81
2018-04-21T22:21:52.745Z,62.66
2018-04-21T22:24:20.654Z,62.13
2018-04-21T22:26:48.592Z,62.46
2018-04-21T22:29:16.492Z,62.73
2018-04-21T22:31:44.424Z,62.68
2018-04-21T22:34:12.350Z,62.53
2018-04-21T22:36:41.168Z,62.80
2018-04-21T22:39:09.119Z,63.85
2018-04-21T22:41:37.023Z,60.52
2018-04-21T22:44:04.971Z,63.13
2018-04-21T22:46:32.889Z,63.76
2018-04-21T22:49:00.799Z,60.34
2018-04-21T22:51:28.704Z,60.10
2018-04-21T22:53:56.630Z,60.80
2018-04-21T22:56:24.528Z,60.60
2018-04-21T22:58:52.437Z,61.76
2018-04-21T23:01:20.351Z,62.27
2018-04-21T23:03:48.280Z,62.33
2018-04-21T23:06:16.216Z,61.83
2018-04-21T23:08:44.180Z,60.10
2018-04-21T23:11:12.160Z,60.50
2018-04-21T23:13:40.020Z,60.33
2018-04-21T23:16:07.961Z,61.04
2018-04-21T23:18:35.956Z,61.26
2018-04-21T23:21:03.898Z,61.01
2018-04-21T23:23:31.804Z,61.68
2018-04-21T23:25:59.778Z,61.79
2018-04-21T23:28:27.716Z,61.70
2018-04-21T23:30:55.712Z,62.21
2018-04-21T23:33:23.652Z,62.47
2018-04-21T23:35:51.586Z,62.95
2018-04-21T23:38:19.581Z,63.31
2018-04-21T23:40:47.468Z,64.08
2018-04-21T23:43:15.407Z,64.75
2018-04-21T23:45:43.339Z,64.61
2018-04-21T23:48:11.350Z,64.99
2018-04-21T23:50:39.244Z,66.13
2018-04-21T23:53:07.156Z,66.15
2018-04-21T23:55:35.106Z,65.72
2018-04-21T23:58:03.024Z,65.72
